sensor_id;sensor_type;location;lat;lon;timestamp;temperature;humidity
39889;DHT22;25563;50.844;4.308;2024-02-26T00:00:11;8.60;99.90
39889;DHT22;25563;50.844;4.308;2024-02-26T00:02:37;8.50;99.90
39889;DHT22;25563;50.844;4.308;2024-02-26T00:05:06;8.50;99.90
39889;DHT22;25563;50.844;4.308;2024-02-26T00:07:34;8.50;99.90
39889;DHT22;25563;50.844;4.308;2024-02-26T00:09:59;8.70;99.90
39889;DHT22;25563;50.844;4.308;2024-02-26T00:12:27;8.60;99.90
39889;DHT22;25563;50.844;4.308;2024-02-26T00:14:54;8.60;99.90
39889;DHT22;25563;50.844;4.308;2024-02-26T00:17:19;8.50;99.90
39889;DHT22;25563;50.844;4.308;2024-02-26T00:19:45;8.50;99.90
39889;DHT22;25563;50.844;4.308;2024-02-26T00:22:11;8.50;99.90
39889;DHT22;25563;50.844;4.308;2024-02-26T00:24:37;8.60;99.90
39889;DHT22;25563;50.844;4.308;2024-02-26T00:27:03;8.60;99.90
39889;DHT22;25563;50.844;4.308;2024-02-26T00:29:29;8.70;99.90
39889;DHT22;25563;50.844;4.308;2024-02-26T00:31:55;8.60;99.90
39889;DHT22;25563;50.844;4.308;2024-02-26T00:34:20;8.50;99.90
39889;DHT22;25563;50.844;4.308;2024-02-26T00:36:47;8.50;99.90
39889;DHT22;25563;50.844;4.308;2024-02-26T00:39:14;8.40;99.90
39889;DHT22;25563;50.844;4.308;2024-02-26T00:41:40;8.50;99.90
39889;DHT22;25563;50.844;4.308;2024-02-26T00:44:06;8.50;99.90
39889;DHT22;25563;50.844;4.308;2024-02-26T00:46:32;8.50;99.90
39889;DHT22;25563;50.844;4.308;2024-02-26T00:48:58;8.40;99.90
39889;DHT22;25563;50.844;4.308;2024-02-26T00:51:23;8.30;99.90
39889;DHT22;25563;50.844;4.308;2024-02-26T00:53:49;8.30;99.90
39889;DHT22;25563;50.844;4.308;2024-02-26T00:56:15;8.40;99.90
39889;DHT22;25563;50.844;4.308;2024-02-26T00:58:42;8.40;99.90
39889;DHT22;25563;50.844;4.308;2024-02-26T01:01:07;8.40;99.90
39889;DHT22;25563;50.844;4.308;2024-02-26T01:03:33;8.30;99.90
39889;DHT22;25563;50.844;4.308;2024-02-26T01:05:59;8.20;99.90
39889;DHT22;25563;50.844;4.308;2024-02-26T01:08:32;8.40;99.90
39889;DHT22;25563;50.844;4.308;2024-02-26T01:11:02;8.40;99.90
39889;DHT22;25563;50.844;4.308;2024-02-26T01:13:29;8.40;99.90
39889;DHT22;25563;50.844;4.308;2024-02-26T01:15:55;8.40;99.90
39889;DHT22;25563;50.844;4.308;2024-02-26T01:18:21;8.40;99.90
39889;DHT22;25563;50.844;4.308;2024-02-26T01:20:47;8.40;99.90
39889;DHT22;25563;50.844;4.308;2024-02-26T01:23:13;8.40;99.90
39889;DHT22;25563;50.844;4.308;2024-02-26T01:25:39;8.40;99.90
39889;DHT22;25563;50.844;4.308;2024-02-26T01:28:05;8.40;99.90
39889;DHT22;25563;50.844;4.308;2024-02-26T01:30:31;8.40;99.90
39889;DHT22;25563;50.844;4.308;2024-02-26T01:32:57;8.40;99.90
39889;DHT22;25563;50.844;4.308;2024-02-26T01:35:23;8.40;99.90
39889;DHT22;25563;50.844;4.308;2024-02-26T01:37:48;8.40;99.90
39889;DHT22;25563;50.844;4.308;2024-02-26T01:40:14;8.40;99.90
39889;DHT22;25563;50.844;4.308;2024-02-26T01:42:45;8.30;99.90
39889;DHT22;25563;50.844;4.308;2024-02-26T01:45:16;8.20;99.90
39889;DHT22;25563;50.844;4.308;2024-02-26T01:47:52;8.20;99.90
39889;DHT22;25563;50.844;4.308;2024-02-26T01:50:20;8.10;99.90
39889;DHT22;25563;50.844;4.308;2024-02-26T01:52:49;8.10;99.90
39889;DHT22;25563;50.844;4.308;2024-02-26T01:55:15;8.20;99.90
39889;DHT22;25563;50.844;4.308;2024-02-26T01:57:43;8.20;99.90
39889;DHT22;25563;50.844;4.308;2024-02-26T02:00:09;8.10;99.90
39889;DHT22;25563;50.844;4.308;2024-02-26T02:02:36;8.10;99.90
39889;DHT22;25563;50.844;4.308;2024-02-26T02:05:02;8.00;99.90
39889;DHT22;25563;50.844;4.308;2024-02-26T02:07:29;8.00;99.90
39889;DHT22;25563;50.844;4.308;2024-02-26T02:09:54;7.90;99.90
39889;DHT22;25563;50.844;4.308;2024-02-26T02:12:21;8.00;99.90
39889;DHT22;25563;50.844;4.308;2024-02-26T02:14:47;8.00;99.90
39889;DHT22;25563;50.844;4.308;2024-02-26T02:17:13;8.00;99.90
39889;DHT22;25563;50.844;4.308;2024-02-26T02:19:38;8.00;99.90
39889;DHT22;25563;50.844;4.308;2024-02-26T02:22:04;8.00;99.90
39889;DHT22;25563;50.844;4.308;2024-02-26T02:24:30;8.00;99.90
39889;DHT22;25563;50.844;4.308;2024-02-26T02:26:56;8.10;99.90
39889;DHT22;25563;50.844;4.308;2024-02-26T02:29:22;7.70;99.90
39889;DHT22;25563;50.844;4.308;2024-02-26T02:31:48;8.10;99.90
39889;DHT22;25563;50.844;4.308;2024-02-26T02:34:14;8.10;99.90
39889;DHT22;25563;50.844;4.308;2024-02-26T02:36:52;8.00;99.90
39889;DHT22;25563;50.844;4.308;2024-02-26T02:39:18;8.10;99.90
39889;DHT22;25563;50.844;4.308;2024-02-26T02:41:44;8.10;99.90
39889;DHT22;25563;50.844;4.308;2024-02-26T02:44:09;8.10;99.90
39889;DHT22;25563;50.844;4.308;2024-02-26T02:46:35;8.00;99.90
39889;DHT22;25563;50.844;4.308;2024-02-26T02:49:07;8.00;99.90
39889;DHT22;25563;50.844;4.308;2024-02-26T02:51:33;7.90;99.90
39889;DHT22;25563;50.844;4.308;2024-02-26T02:53:59;7.90;99.90
39889;DHT22;25563;50.844;4.308;2024-02-26T02:56:25;8.00;99.90
39889;DHT22;25563;50.844;4.308;2024-02-26T02:58:52;8.10;99.90
39889;DHT22;25563;50.844;4.308;2024-02-26T03:01:19;8.10;99.90
39889;DHT22;25563;50.844;4.308;2024-02-26T03:03:44;8.00;99.90
39889;DHT22;25563;50.844;4.308;2024-02-26T03:06:11;8.10;99.90
39889;DHT22;25563;50.844;4.308;2024-02-26T03:08:37;8.10;99.90
39889;DHT22;25563;50.844;4.308;2024-02-26T03:11:05;8.00;99.90
39889;DHT22;25563;50.844;4.308;2024-02-26T03:13:30;8.00;99.90
39889;DHT22;25563;50.844;4.308;2024-02-26T03:15:57;8.00;99.90
39889;DHT22;25563;50.844;4.308;2024-02-26T03:18:23;8.10;99.90
39889;DHT22;25563;50.844;4.308;2024-02-26T03:20:50;8.10;99.90
39889;DHT22;25563;50.844;4.308;2024-02-26T03:23:15;8.00;99.90
39889;DHT22;25563;50.844;4.308;2024-02-26T03:25:44;8.00;99.90
39889;DHT22;25563;50.844;4.308;2024-02-26T03:28:11;8.00;99.90
39889;DHT22;25563;50.844;4.308;2024-02-26T03:30:38;8.00;99.90
39889;DHT22;25563;50.844;4.308;2024-02-26T03:33:05;8.10;99.90
39889;DHT22;25563;50.844;4.308;2024-02-26T03:35:30;8.00;99.90
39889;DHT22;25563;50.844;4.308;2024-02-26T03:37:56;8.00;99.90
39889;DHT22;25563;50.844;4.308;2024-02-26T03:40:22;8.00;99.90
39889;DHT22;25563;50.844;4.308;2024-02-26T03:42:48;8.00;99.90
39889;DHT22;25563;50.844;4.308;2024-02-26T03:45:15;8.00;99.90
39889;DHT22;25563;50.844;4.308;2024-02-26T03:47:40;8.10;99.90
39889;DHT22;25563;50.844;4.308;2024-02-26T03:50:07;8.00;99.90
39889;DHT22;25563;50.844;4.308;2024-02-26T03:52:33;8.00;99.90
39889;DHT22;25563;50.844;4.308;2024-02-26T03:54:59;8.00;99.90
39889;DHT22;25563;50.844;4.308;2024-02-26T03:57:25;8.10;99.90
39889;DHT22;25563;50.844;4.308;2024-02-26T03:59:51;8.00;99.90
39889;DHT22;25563;50.844;4.308;2024-02-26T04:02:17;8.00;99.90
39889;DHT22;25563;50.844;4.308;2024-02-26T04:04:45;8.00;99.90
39889;DHT22;25563;50.844;4.308;2024-02-26T04:07:11;7.90;99.90
39889;DHT22;25563;50.844;4.308;2024-02-26T04:09:37;7.80;99.90
39889;DHT22;25563;50.844;4.308;2024-02-26T04:12:04;7.70;99.90
39889;DHT22;25563;50.844;4.308;2024-02-26T04:14:30;7.80;99.90
39889;DHT22;25563;50.844;4.308;2024-02-26T04:16:56;7.80;99.90
39889;DHT22;25563;50.844;4.308;2024-02-26T04:19:21;7.90;99.90
39889;DHT22;25563;50.844;4.308;2024-02-26T04:21:48;7.90;99.90
39889;DHT22;25563;50.844;4.308;2024-02-26T04:24:14;7.90;99.90
39889;DHT22;25563;50.844;4.308;2024-02-26T04:26:41;7.80;99.90
39889;DHT22;25563;50.844;4.308;2024-02-26T04:29:07;7.80;99.90
39889;DHT22;25563;50.844;4.308;2024-02-26T04:31:33;7.70;99.90
39889;DHT22;25563;50.844;4.308;2024-02-26T04:34:00;7.70;99.90
39889;DHT22;25563;50.844;4.308;2024-02-26T04:36:26;6.90;99.90
39889;DHT22;25563;50.844;4.308;2024-02-26T04:38:51;7.60;99.90
39889;DHT22;25563;50.844;4.308;2024-02-26T04:41:20;7.60;99.90
39889;DHT22;25563;50.844;4.308;2024-02-26T04:43:45;7.60;99.90
39889;DHT22;25563;50.844;4.308;2024-02-26T04:46:11;7.60;99.90
39889;DHT22;25563;50.844;4.308;2024-02-26T04:48:37;7.60;99.90
39889;DHT22;25563;50.844;4.308;2024-02-26T04:51:04;7.40;99.90
39889;DHT22;25563;50.844;4.308;2024-02-26T04:53:30;7.40;99.90
39889;DHT22;25563;50.844;4.308;2024-02-26T04:55:55;7.50;99.90
39889;DHT22;25563;50.844;4.308;2024-02-26T04:58:21;7.60;99.90
39889;DHT22;25563;50.844;4.308;2024-02-26T05:00:48;7.60;99.90
39889;DHT22;25563;50.844;4.308;2024-02-26T05:03:14;7.70;99.90
39889;DHT22;25563;50.844;4.308;2024-02-26T05:05:42;7.70;99.90
39889;DHT22;25563;50.844;4.308;2024-02-26T05:08:09;7.80;99.90
39889;DHT22;25563;50.844;4.308;2024-02-26T05:10:35;7.70;99.90
39889;DHT22;25563;50.844;4.308;2024-02-26T05:13:05;7.70;99.90
39889;DHT22;25563;50.844;4.308;2024-02-26T05:15:31;7.60;99.90
39889;DHT22;25563;50.844;4.308;2024-02-26T05:17:57;7.50;99.90
39889;DHT22;25563;50.844;4.308;2024-02-26T05:20:23;7.40;99.90
39889;DHT22;25563;50.844;4.308;2024-02-26T05:22:49;7.40;99.90
39889;DHT22;25563;50.844;4.308;2024-02-26T05:25:16;7.30;99.90
39889;DHT22;25563;50.844;4.308;2024-02-26T05:27:43;7.20;99.90
39889;DHT22;25563;50.844;4.308;2024-02-26T05:30:10;7.10;99.90
39889;DHT22;25563;50.844;4.308;2024-02-26T05:32:36;7.10;99.90
39889;DHT22;25563;50.844;4.308;2024-02-26T05:35:02;7.10;99.90
39889;DHT22;25563;50.844;4.308;2024-02-26T05:37:31;7.10;99.90
39889;DHT22;25563;50.844;4.308;2024-02-26T05:39:56;7.20;99.90
39889;DHT22;25563;50.844;4.308;2024-02-26T05:42:23;7.20;99.90
39889;DHT22;25563;50.844;4.308;2024-02-26T05:44:48;7.20;99.90
39889;DHT22;25563;50.844;4.308;2024-02-26T05:47:14;7.20;99.90
39889;DHT22;25563;50.844;4.308;2024-02-26T05:49:41;7.10;99.90
39889;DHT22;25563;50.844;4.308;2024-02-26T05:52:07;7.20;99.90
39889;DHT22;25563;50.844;4.308;2024-02-26T05:54:33;7.20;99.90
39889;DHT22;25563;50.844;4.308;2024-02-26T05:56:59;7.20;99.90
39889;DHT22;25563;50.844;4.308;2024-02-26T05:59:24;7.20;99.90
39889;DHT22;25563;50.844;4.308;2024-02-26T06:01:50;5.70;99.90
39889;DHT22;25563;50.844;4.308;2024-02-26T06:04:16;7.30;99.90
39889;DHT22;25563;50.844;4.308;2024-02-26T06:06:44;7.40;99.90
39889;DHT22;25563;50.844;4.308;2024-02-26T06:09:11;7.40;99.90
39889;DHT22;25563;50.844;4.308;2024-02-26T06:11:37;7.40;99.90
39889;DHT22;25563;50.844;4.308;2024-02-26T06:14:03;7.30;99.90
39889;DHT22;25563;50.844;4.308;2024-02-26T06:16:31;7.30;99.90
39889;DHT22;25563;50.844;4.308;2024-02-26T06:18:58;7.30;99.90
39889;DHT22;25563;50.844;4.308;2024-02-26T06:21:26;7.20;99.90
39889;DHT22;25563;50.844;4.308;2024-02-26T06:23:54;7.20;99.90
39889;DHT22;25563;50.844;4.308;2024-02-26T06:26:20;7.20;99.90
39889;DHT22;25563;50.844;4.308;2024-02-26T06:28:47;7.30;99.90
39889;DHT22;25563;50.844;4.308;2024-02-26T06:31:13;7.20;99.90
39889;DHT22;25563;50.844;4.308;2024-02-26T06:33:39;7.20;99.90
39889;DHT22;25563;50.844;4.308;2024-02-26T06:36:05;7.30;99.90
39889;DHT22;25563;50.844;4.308;2024-02-26T06:38:30;7.50;99.90
39889;DHT22;25563;50.844;4.308;2024-02-26T06:40:56;7.40;99.90
39889;DHT22;25563;50.844;4.308;2024-02-26T06:43:24;7.40;99.90
39889;DHT22;25563;50.844;4.308;2024-02-26T06:45:50;7.30;99.90
39889;DHT22;25563;50.844;4.308;2024-02-26T06:48:16;7.40;99.90
39889;DHT22;25563;50.844;4.308;2024-02-26T06:50:42;7.30;99.90
39889;DHT22;25563;50.844;4.308;2024-02-26T06:53:08;7.30;99.90
39889;DHT22;25563;50.844;4.308;2024-02-26T06:55:33;7.30;99.90
39889;DHT22;25563;50.844;4.308;2024-02-26T06:57:59;7.30;99.90
39889;DHT22;25563;50.844;4.308;2024-02-26T07:00:25;7.40;99.90
39889;DHT22;25563;50.844;4.308;2024-02-26T07:02:51;7.40;99.90
39889;DHT22;25563;50.844;4.308;2024-02-26T07:05:17;7.40;99.90
39889;DHT22;25563;50.844;4.308;2024-02-26T07:07:43;7.50;99.90
39889;DHT22;25563;50.844;4.308;2024-02-26T07:10:08;7.40;99.90
39889;DHT22;25563;50.844;4.308;2024-02-26T07:12:34;7.40;99.90
39889;DHT22;25563;50.844;4.308;2024-02-26T07:15:00;7.30;99.90
39889;DHT22;25563;50.844;4.308;2024-02-26T07:17:26;7.20;99.90
39889;DHT22;25563;50.844;4.308;2024-02-26T07:19:52;7.20;99.90
39889;DHT22;25563;50.844;4.308;2024-02-26T07:22:18;7.20;99.90
39889;DHT22;25563;50.844;4.308;2024-02-26T07:24:43;7.30;99.90
39889;DHT22;25563;50.844;4.308;2024-02-26T07:27:09;7.30;99.90
39889;DHT22;25563;50.844;4.308;2024-02-26T07:29:35;7.30;99.90
39889;DHT22;25563;50.844;4.308;2024-02-26T07:32:01;7.20;99.90
39889;DHT22;25563;50.844;4.308;2024-02-26T07:34:26;7.40;99.90
39889;DHT22;25563;50.844;4.308;2024-02-26T07:36:56;7.50;99.90
39889;DHT22;25563;50.844;4.308;2024-02-26T07:39:22;7.50;99.90
39889;DHT22;25563;50.844;4.308;2024-02-26T07:41:47;7.50;99.90
39889;DHT22;25563;50.844;4.308;2024-02-26T07:44:15;7.60;99.90
39889;DHT22;25563;50.844;4.308;2024-02-26T07:46:41;7.60;99.90
39889;DHT22;25563;50.844;4.308;2024-02-26T07:49:07;7.60;99.90
39889;DHT22;25563;50.844;4.308;2024-02-26T07:51:33;7.70;99.90
39889;DHT22;25563;50.844;4.308;2024-02-26T07:54:00;7.70;99.90
39889;DHT22;25563;50.844;4.308;2024-02-26T07:56:26;7.70;99.90
39889;DHT22;25563;50.844;4.308;2024-02-26T07:58:52;7.70;99.90
39889;DHT22;25563;50.844;4.308;2024-02-26T08:01:18;7.80;99.90
39889;DHT22;25563;50.844;4.308;2024-02-26T08:03:43;7.80;99.90
39889;DHT22;25563;50.844;4.308;2024-02-26T08:06:09;7.80;99.90
39889;DHT22;25563;50.844;4.308;2024-02-26T08:08:35;7.90;99.90
39889;DHT22;25563;50.844;4.308;2024-02-26T08:11:00;7.90;99.90
39889;DHT22;25563;50.844;4.308;2024-02-26T08:13:26;8.00;99.90
39889;DHT22;25563;50.844;4.308;2024-02-26T08:15:52;8.00;99.90
39889;DHT22;25563;50.844;4.308;2024-02-26T08:18:18;8.00;99.90
39889;DHT22;25563;50.844;4.308;2024-02-26T08:20:44;8.00;99.90
39889;DHT22;25563;50.844;4.308;2024-02-26T08:23:10;8.10;99.90
39889;DHT22;25563;50.844;4.308;2024-02-26T08:25:36;8.10;99.90
39889;DHT22;25563;50.844;4.308;2024-02-26T08:28:02;8.10;99.90
39889;DHT22;25563;50.844;4.308;2024-02-26T08:30:28;8.10;99.90
39889;DHT22;25563;50.844;4.308;2024-02-26T08:32:54;8.10;99.90
39889;DHT22;25563;50.844;4.308;2024-02-26T08:35:19;8.10;99.90
39889;DHT22;25563;50.844;4.308;2024-02-26T08:37:46;8.00;99.90
39889;DHT22;25563;50.844;4.308;2024-02-26T08:40:12;7.90;99.90
39889;DHT22;25563;50.844;4.308;2024-02-26T08:42:38;7.90;99.90
39889;DHT22;25563;50.844;4.308;2024-02-26T08:45:04;7.90;99.90
39889;DHT22;25563;50.844;4.308;2024-02-26T08:47:29;7.90;99.90
39889;DHT22;25563;50.844;4.308;2024-02-26T08:49:55;7.90;99.90
39889;DHT22;25563;50.844;4.308;2024-02-26T08:52:21;8.00;99.90
39889;DHT22;25563;50.844;4.308;2024-02-26T08:54:50;8.00;99.90
39889;DHT22;25563;50.844;4.308;2024-02-26T08:57:15;8.00;99.90
39889;DHT22;25563;50.844;4.308;2024-02-26T08:59:41;8.00;99.90
39889;DHT22;25563;50.844;4.308;2024-02-26T09:02:08;8.10;99.90
39889;DHT22;25563;50.844;4.308;2024-02-26T09:04:35;8.00;99.90
39889;DHT22;25563;50.844;4.308;2024-02-26T09:07:01;8.10;99.90
39889;DHT22;25563;50.844;4.308;2024-02-26T09:09:27;8.10;99.90
39889;DHT22;25563;50.844;4.308;2024-02-26T09:11:53;8.10;99.90
39889;DHT22;25563;50.844;4.308;2024-02-26T09:14:20;7.90;99.90
39889;DHT22;25563;50.844;4.308;2024-02-26T09:17:19;8.90;99.90
39889;DHT22;25563;50.844;4.308;2024-02-26T09:19:45;7.70;99.90
39889;DHT22;25563;50.844;4.308;2024-02-26T09:22:11;7.70;99.90
39889;DHT22;25563;50.844;4.308;2024-02-26T09:24:37;7.70;99.90
39889;DHT22;25563;50.844;4.308;2024-02-26T09:27:03;7.60;99.90
39889;DHT22;25563;50.844;4.308;2024-02-26T09:29:29;7.60;99.90
39889;DHT22;25563;50.844;4.308;2024-02-26T09:31:54;7.60;99.90
39889;DHT22;25563;50.844;4.308;2024-02-26T09:34:20;7.50;99.90
39889;DHT22;25563;50.844;4.308;2024-02-26T09:36:46;7.50;99.90
39889;DHT22;25563;50.844;4.308;2024-02-26T09:39:12;7.50;99.90
39889;DHT22;25563;50.844;4.308;2024-02-26T09:41:40;7.60;99.90
39889;DHT22;25563;50.844;4.308;2024-02-26T09:44:06;7.70;99.90
39889;DHT22;25563;50.844;4.308;2024-02-26T09:46:34;7.60;99.90
39889;DHT22;25563;50.844;4.308;2024-02-26T09:49:00;7.60;99.90
39889;DHT22;25563;50.844;4.308;2024-02-26T09:51:26;7.60;99.90
39889;DHT22;25563;50.844;4.308;2024-02-26T09:53:52;7.60;99.90
39889;DHT22;25563;50.844;4.308;2024-02-26T09:56:20;7.70;99.90
39889;DHT22;25563;50.844;4.308;2024-02-26T09:58:48;7.60;99.90
39889;DHT22;25563;50.844;4.308;2024-02-26T10:01:20;7.50;99.90
39889;DHT22;25563;50.844;4.308;2024-02-26T10:03:49;7.40;99.90
39889;DHT22;25563;50.844;4.308;2024-02-26T10:06:17;7.40;99.90
39889;DHT22;25563;50.844;4.308;2024-02-26T10:08:43;7.60;99.90
39889;DHT22;25563;50.844;4.308;2024-02-26T10:11:10;7.60;99.90
39889;DHT22;25563;50.844;4.308;2024-02-26T10:13:36;7.70;99.90
39889;DHT22;25563;50.844;4.308;2024-02-26T10:16:02;7.70;99.90
39889;DHT22;25563;50.844;4.308;2024-02-26T10:18:50;7.60;99.90
39889;DHT22;25563;50.844;4.308;2024-02-26T10:21:23;7.70;99.90
39889;DHT22;25563;50.844;4.308;2024-02-26T10:23:49;7.70;99.90
39889;DHT22;25563;50.844;4.308;2024-02-26T10:26:16;7.70;99.90
39889;DHT22;25563;50.844;4.308;2024-02-26T10:28:44;7.70;99.90
39889;DHT22;25563;50.844;4.308;2024-02-26T10:31:11;7.70;99.90
39889;DHT22;25563;50.844;4.308;2024-02-26T10:33:39;7.60;99.90
39889;DHT22;25563;50.844;4.308;2024-02-26T10:36:07;7.60;99.90
39889;DHT22;25563;50.844;4.308;2024-02-26T10:38:35;6.90;99.90
39889;DHT22;25563;50.844;4.308;2024-02-26T10:41:07;7.80;99.90
39889;DHT22;25563;50.844;4.308;2024-02-26T10:43:34;7.90;99.90
39889;DHT22;25563;50.844;4.308;2024-02-26T10:46:00;7.90;99.90
39889;DHT22;25563;50.844;4.308;2024-02-26T10:48:26;7.80;99.90
39889;DHT22;25563;50.844;4.308;2024-02-26T10:50:51;7.80;99.90
39889;DHT22;25563;50.844;4.308;2024-02-26T10:53:20;7.80;99.90
39889;DHT22;25563;50.844;4.308;2024-02-26T10:55:50;7.70;99.90
39889;DHT22;25563;50.844;4.308;2024-02-26T10:58:17;7.80;99.90
39889;DHT22;25563;50.844;4.308;2024-02-26T11:00:43;7.80;99.90
39889;DHT22;25563;50.844;4.308;2024-02-26T11:03:11;7.80;99.90
39889;DHT22;25563;50.844;4.308;2024-02-26T11:05:40;7.80;99.90
39889;DHT22;25563;50.844;4.308;2024-02-26T11:08:06;7.80;99.90
39889;DHT22;25563;50.844;4.308;2024-02-26T11:10:32;7.80;99.90
39889;DHT22;25563;50.844;4.308;2024-02-26T11:13:00;7.70;99.90
39889;DHT22;25563;50.844;4.308;2024-02-26T11:15:28;7.60;99.90
39889;DHT22;25563;50.844;4.308;2024-02-26T11:17:55;7.70;99.90
39889;DHT22;25563;50.844;4.308;2024-02-26T11:20:24;7.70;99.90
39889;DHT22;25563;50.844;4.308;2024-02-26T11:22:51;7.60;99.90
39889;DHT22;25563;50.844;4.308;2024-02-26T11:25:18;7.50;99.90
39889;DHT22;25563;50.844;4.308;2024-02-26T11:27:54;7.30;99.90
39889;DHT22;25563;50.844;4.308;2024-02-26T11:30:23;7.20;99.90
39889;DHT22;25563;50.844;4.308;2024-02-26T11:32:50;7.10;99.90
39889;DHT22;25563;50.844;4.308;2024-02-26T11:35:18;7.10;99.90
39889;DHT22;25563;50.844;4.308;2024-02-26T11:37:57;7.20;99.90
39889;DHT22;25563;50.844;4.308;2024-02-26T11:40:26;7.30;99.90
39889;DHT22;25563;50.844;4.308;2024-02-26T11:42:53;7.30;99.90
39889;DHT22;25563;50.844;4.308;2024-02-26T11:48:10;7.50;99.90
39889;DHT22;25563;50.844;4.308;2024-02-26T11:50:39;7.40;99.90
39889;DHT22;25563;50.844;4.308;2024-02-26T11:53:30;7.50;99.90
39889;DHT22;25563;50.844;4.308;2024-02-26T11:59:13;7.40;99.90
39889;DHT22;25563;50.844;4.308;2024-02-26T12:01:59;7.50;99.90
39889;DHT22;25563;50.844;4.308;2024-02-26T12:04:26;7.50;99.90
39889;DHT22;25563;50.844;4.308;2024-02-26T12:06:55;7.50;99.90
39889;DHT22;25563;50.844;4.308;2024-02-26T12:09:34;7.50;99.90
39889;DHT22;25563;50.844;4.308;2024-02-26T12:12:05;7.60;99.90
39889;DHT22;25563;50.844;4.308;2024-02-26T12:14:39;7.60;99.90
39889;DHT22;25563;50.844;4.308;2024-02-26T12:17:07;7.60;99.90
39889;DHT22;25563;50.844;4.308;2024-02-26T12:19:35;7.60;99.90
39889;DHT22;25563;50.844;4.308;2024-02-26T12:22:02;7.80;99.90
39889;DHT22;25563;50.844;4.308;2024-02-26T12:24:27;7.80;99.90
39889;DHT22;25563;50.844;4.308;2024-02-26T12:26:54;6.80;99.90
39889;DHT22;25563;50.844;4.308;2024-02-26T12:29:20;7.70;99.90
39889;DHT22;25563;50.844;4.308;2024-02-26T12:31:46;7.80;99.90
39889;DHT22;25563;50.844;4.308;2024-02-26T12:34:13;7.90;99.90
39889;DHT22;25563;50.844;4.308;2024-02-26T12:36:39;7.90;99.90
39889;DHT22;25563;50.844;4.308;2024-02-26T12:39:07;7.90;99.90
39889;DHT22;25563;50.844;4.308;2024-02-26T12:41:35;7.90;99.90
39889;DHT22;25563;50.844;4.308;2024-02-26T12:44:01;7.80;99.90
39889;DHT22;25563;50.844;4.308;2024-02-26T12:46:28;7.90;99.90
39889;DHT22;25563;50.844;4.308;2024-02-26T12:48:58;8.00;99.90
39889;DHT22;25563;50.844;4.308;2024-02-26T12:51:25;8.00;99.90
39889;DHT22;25563;50.844;4.308;2024-02-26T12:53:54;7.80;99.90
39889;DHT22;25563;50.844;4.308;2024-02-26T12:56:22;7.70;99.90
39889;DHT22;25563;50.844;4.308;2024-02-26T12:58:50;7.70;99.90
39889;DHT22;25563;50.844;4.308;2024-02-26T13:01:19;7.60;99.90
39889;DHT22;25563;50.844;4.308;2024-02-26T13:03:46;7.40;99.90
39889;DHT22;25563;50.844;4.308;2024-02-26T13:06:13;7.40;99.90
39889;DHT22;25563;50.844;4.308;2024-02-26T13:08:39;7.40;99.90
39889;DHT22;25563;50.844;4.308;2024-02-26T13:11:06;7.50;99.90
39889;DHT22;25563;50.844;4.308;2024-02-26T13:13:32;7.50;99.90
39889;DHT22;25563;50.844;4.308;2024-02-26T13:16:07;7.50;99.90
39889;DHT22;25563;50.844;4.308;2024-02-26T13:18:34;7.50;99.90
39889;DHT22;25563;50.844;4.308;2024-02-26T13:21:11;7.50;99.90
39889;DHT22;25563;50.844;4.308;2024-02-26T13:23:39;7.50;99.90
39889;DHT22;25563;50.844;4.308;2024-02-26T13:26:05;7.50;99.90
39889;DHT22;25563;50.844;4.308;2024-02-26T13:28:31;7.50;99.90
39889;DHT22;25563;50.844;4.308;2024-02-26T13:30:58;7.40;99.90
39889;DHT22;25563;50.844;4.308;2024-02-26T13:33:26;7.40;99.90
39889;DHT22;25563;50.844;4.308;2024-02-26T13:35:53;7.50;99.90
39889;DHT22;25563;50.844;4.308;2024-02-26T13:38:19;7.40;99.90
39889;DHT22;25563;50.844;4.308;2024-02-26T13:40:45;7.40;99.90
39889;DHT22;25563;50.844;4.308;2024-02-26T13:43:11;7.50;99.90
39889;DHT22;25563;50.844;4.308;2024-02-26T13:45:38;7.70;99.90
39889;DHT22;25563;50.844;4.308;2024-02-26T13:48:08;7.60;99.90
39889;DHT22;25563;50.844;4.308;2024-02-26T13:50:37;7.60;99.90
39889;DHT22;25563;50.844;4.308;2024-02-26T13:53:03;7.60;99.90
39889;DHT22;25563;50.844;4.308;2024-02-26T13:55:30;7.60;99.90
39889;DHT22;25563;50.844;4.308;2024-02-26T13:57:58;7.60;99.90
39889;DHT22;25563;50.844;4.308;2024-02-26T14:00:27;7.50;99.90
39889;DHT22;25563;50.844;4.308;2024-02-26T14:02:53;7.60;99.90
39889;DHT22;25563;50.844;4.308;2024-02-26T14:05:18;7.50;99.90
39889;DHT22;25563;50.844;4.308;2024-02-26T14:07:44;7.50;99.90
39889;DHT22;25563;50.844;4.308;2024-02-26T14:10:12;7.50;99.90
39889;DHT22;25563;50.844;4.308;2024-02-26T14:12:38;7.50;99.90
39889;DHT22;25563;50.844;4.308;2024-02-26T14:15:06;7.60;99.90
39889;DHT22;25563;50.844;4.308;2024-02-26T14:17:33;7.70;99.90
39889;DHT22;25563;50.844;4.308;2024-02-26T14:19:59;7.80;99.90
39889;DHT22;25563;50.844;4.308;2024-02-26T14:22:25;7.80;99.90
39889;DHT22;25563;50.844;4.308;2024-02-26T14:24:53;7.80;99.90
39889;DHT22;25563;50.844;4.308;2024-02-26T14:27:20;7.80;99.90
39889;DHT22;25563;50.844;4.308;2024-02-26T14:29:48;7.70;99.90
39889;DHT22;25563;50.844;4.308;2024-02-26T14:32:14;7.80;99.90
39889;DHT22;25563;50.844;4.308;2024-02-26T14:34:40;7.70;99.90
39889;DHT22;25563;50.844;4.308;2024-02-26T14:37:07;7.70;99.90
39889;DHT22;25563;50.844;4.308;2024-02-26T14:39:33;7.70;99.90
39889;DHT22;25563;50.844;4.308;2024-02-26T14:41:59;7.70;99.90
39889;DHT22;25563;50.844;4.308;2024-02-26T14:44:26;7.80;99.90
39889;DHT22;25563;50.844;4.308;2024-02-26T14:46:51;7.70;99.90
39889;DHT22;25563;50.844;4.308;2024-02-26T14:49:17;7.70;99.90
39889;DHT22;25563;50.844;4.308;2024-02-26T14:51:44;7.70;99.90
39889;DHT22;25563;50.844;4.308;2024-02-26T14:54:13;7.70;99.90
39889;DHT22;25563;50.844;4.308;2024-02-26T14:56:39;7.60;99.90
39889;DHT22;25563;50.844;4.308;2024-02-26T14:59:05;7.50;99.90
39889;DHT22;25563;50.844;4.308;2024-02-26T15:01:31;7.60;99.90
39889;DHT22;25563;50.844;4.308;2024-02-26T15:03:57;7.70;99.90
39889;DHT22;25563;50.844;4.308;2024-02-26T15:06:24;7.60;99.90
39889;DHT22;25563;50.844;4.308;2024-02-26T15:08:49;7.50;99.90
39889;DHT22;25563;50.844;4.308;2024-02-26T15:11:15;7.40;99.90
39889;DHT22;25563;50.844;4.308;2024-02-26T15:13:41;7.40;99.90
39889;DHT22;25563;50.844;4.308;2024-02-26T15:16:07;7.30;99.90
39889;DHT22;25563;50.844;4.308;2024-02-26T15:18:33;7.30;99.90
39889;DHT22;25563;50.844;4.308;2024-02-26T15:20:58;7.20;99.90
39889;DHT22;25563;50.844;4.308;2024-02-26T15:23:24;7.10;99.90
39889;DHT22;25563;50.844;4.308;2024-02-26T15:25:50;7.10;99.90
39889;DHT22;25563;50.844;4.308;2024-02-26T15:28:16;7.10;99.90
39889;DHT22;25563;50.844;4.308;2024-02-26T15:30:42;7.10;99.90
39889;DHT22;25563;50.844;4.308;2024-02-26T15:33:08;7.20;99.90
39889;DHT22;25563;50.844;4.308;2024-02-26T15:35:34;7.20;99.90
39889;DHT22;25563;50.844;4.308;2024-02-26T15:38:00;7.20;99.90
39889;DHT22;25563;50.844;4.308;2024-02-26T15:40:26;7.30;99.90
39889;DHT22;25563;50.844;4.308;2024-02-26T15:42:52;7.30;99.90
39889;DHT22;25563;50.844;4.308;2024-02-26T15:45:18;7.20;99.90
39889;DHT22;25563;50.844;4.308;2024-02-26T15:47:44;7.20;99.90